createdAt,value
2023-02-17T00:00:39.330Z,8.66
2023-02-17T00:03:05.730Z,8.63
2023-02-17T00:05:32.149Z,8.72
2023-02-17T00:07:58.843Z,8.68
2023-02-17T00:10:25.285Z,8.70
2023-02-17T00:12:51.667Z,8.68
2023-02-17T00:15:18.111Z,8.57
2023-02-17T00:17:44.553Z,8.68
2023-02-17T00:20:11.435Z,8.57
2023-02-17T00:22:37.892Z,8.73
2023-02-17T00:25:04.597Z,8.66
2023-02-17T00:27:31.089Z,8.73
2023-02-17T00:29:57.556Z,8.74
2023-02-17T00:32:23.975Z,8.66
2023-02-17T00:34:52.546Z,8.73
2023-02-17T00:37:18.978Z,8.66
2023-02-17T00:39:45.424Z,8.73
2023-02-17T00:42:11.832Z,8.75
2023-02-17T00:44:38.224Z,8.77
2023-02-17T00:47:05.141Z,8.79
2023-02-17T00:49:31.529Z,8.89
2023-02-17T00:52:01.932Z,8.89
2023-02-17T00:54:29.019Z,8.93
2023-02-17T00:56:55.774Z,8.94
2023-02-17T00:59:22.333Z,8.98
2023-02-17T01:01:48.804Z,8.99
2023-02-17T01:04:15.275Z,8.91
2023-02-17T01:06:42.396Z,8.85
2023-02-17T01:09:12.362Z,8.94
2023-02-17T01:11:39.916Z,8.89
2023-02-17T01:14:06.736Z,8.90
2023-02-17T01:16:36.578Z,8.88
2023-02-17T01:19:05.338Z,8.92
2023-02-17T01:21:32.326Z,8.93
2023-02-17T01:24:01.116Z,8.88
2023-02-17T01:26:29.644Z,8.86
2023-02-17T01:28:56.856Z,8.90
2023-02-17T01:31:24.696Z,8.88
2023-02-17T01:33:51.151Z,8.87
2023-02-17T01:36:19.107Z,8.89
2023-02-17T01:38:48.869Z,8.87
2023-02-17T01:41:17.456Z,8.91
2023-02-17T01:44:03.957Z,8.82
2023-02-17T01:46:33.080Z,8.88
2023-02-17T01:49:00.166Z,8.84
2023-02-17T01:51:31.346Z,8.87
2023-02-17T01:54:15.511Z,8.89
2023-02-17T01:56:44.680Z,8.88
2023-02-17T01:59:17.270Z,8.87
2023-02-17T02:01:43.892Z,8.89
2023-02-17T02:04:11.817Z,8.89
2023-02-17T02:06:41.671Z,8.90
2023-02-17T02:09:15.097Z,8.90
2023-02-17T02:11:41.493Z,8.90
2023-02-17T02:14:08.960Z,8.93
2023-02-17T02:16:45.715Z,8.89
2023-02-17T02:19:27.060Z,8.88
2023-02-17T02:22:05.323Z,8.89
2023-02-17T02:24:52.003Z,8.88
2023-02-17T02:27:21.870Z,8.93
2023-02-17T02:29:57.351Z,8.95
2023-02-17T02:32:38.612Z,8.95
2023-02-17T02:35:16.549Z,8.92
2023-02-17T02:38:07.116Z,8.88
2023-02-17T02:40:39.704Z,8.91
2023-02-17T02:43:06.319Z,8.94
2023-02-17T02:45:34.861Z,8.96
2023-02-17T02:48:02.063Z,8.93
2023-02-17T02:50:53.209Z,8.99
2023-02-17T02:53:39.386Z,8.98
2023-02-17T02:56:19.714Z,8.97
2023-02-17T02:59:04.165Z,9.07
2023-02-17T03:01:53.580Z,9.05
2023-02-17T03:04:20.008Z,9.06
2023-02-17T03:06:56.932Z,9.12
2023-02-17T03:09:27.330Z,9.17
2023-02-17T03:11:56.393Z,9.15
2023-02-17T03:14:23.306Z,9.14
2023-02-17T03:16:51.579Z,9.18
2023-02-17T03:19:20.307Z,9.22
2023-02-17T03:22:11.913Z,9.19
2023-02-17T03:24:38.359Z,9.21
2023-02-17T03:27:04.922Z,9.27
2023-02-17T03:29:31.338Z,9.32
2023-02-17T03:31:57.854Z,9.32
2023-02-17T03:34:24.653Z,9.40
2023-02-17T03:36:51.053Z,9.36
2023-02-17T03:39:17.494Z,9.38
2023-02-17T03:41:44.000Z,9.39
2023-02-17T03:44:10.535Z,9.46
2023-02-17T03:46:40.418Z,9.39
2023-02-17T03:49:07.040Z,9.34
2023-02-17T03:51:33.557Z,9.40
2023-02-17T03:53:59.981Z,9.47
2023-02-17T03:56:26.793Z,9.51
2023-02-17T03:58:53.258Z,9.41
2023-02-17T04:01:19.687Z,9.51
2023-02-17T04:03:46.681Z,9.51
2023-02-17T04:06:13.532Z,9.50
2023-02-17T04:08:40.198Z,9.48
2023-02-17T04:11:09.033Z,9.49
2023-02-17T04:13:35.735Z,9.51
2023-02-17T04:16:04.319Z,9.48
2023-02-17T04:18:31.925Z,9.49
2023-02-17T04:20:58.361Z,9.52
2023-02-17T04:23:25.102Z,9.51
2023-02-17T04:25:51.642Z,9.45
2023-02-17T04:28:18.741Z,9.55
2023-02-17T04:30:47.399Z,9.53
2023-02-17T04:33:14.701Z,9.50
2023-02-17T04:35:41.271Z,9.59
2023-02-17T04:38:08.563Z,9.60
2023-02-17T04:40:35.031Z,9.59
2023-02-17T04:43:01.576Z,9.56
2023-02-17T04:45:28.008Z,9.55
2023-02-17T04:47:54.710Z,9.50
2023-02-17T04:50:21.704Z,9.47
2023-02-17T04:52:48.464Z,9.47
2023-02-17T04:55:15.127Z,9.39
2023-02-17T04:57:41.513Z,9.47
2023-02-17T05:00:08.760Z,9.51
2023-02-17T05:02:35.246Z,9.54
2023-02-17T05:05:01.784Z,9.54
2023-02-17T05:07:28.177Z,9.62
2023-02-17T05:09:54.591Z,9.57
2023-02-17T05:12:21.149Z,9.51
2023-02-17T05:14:47.558Z,9.54
2023-02-17T05:17:13.997Z,9.51
2023-02-17T05:19:40.379Z,9.59
2023-02-17T05:22:06.786Z,9.57
2023-02-17T05:24:33.394Z,9.61
2023-02-17T05:26:59.800Z,9.67
2023-02-17T05:29:26.170Z,9.58
2023-02-17T05:31:52.660Z,9.60
2023-02-17T05:34:21.081Z,9.62
2023-02-17T05:36:47.536Z,9.60
2023-02-17T05:39:14.021Z,9.59
2023-02-17T05:41:40.552Z,9.54
2023-02-17T05:44:20.373Z,9.58
2023-02-17T05:46:46.806Z,9.64
2023-02-17T05:49:13.252Z,9.61
2023-02-17T05:51:39.641Z,9.65
2023-02-17T05:54:06.282Z,9.68
2023-02-17T06:15:19.341Z,9.75
2023-02-17T06:17:45.796Z,9.71
2023-02-17T06:20:13.200Z,9.71
2023-02-17T06:22:39.625Z,9.74
2023-02-17T06:25:06.433Z,9.74
2023-02-17T06:27:32.851Z,9.74
2023-02-17T06:30:05.068Z,9.75
2023-02-17T06:32:31.580Z,9.72
2023-02-17T06:34:57.925Z,9.72
2023-02-17T06:37:25.092Z,9.75
2023-02-17T06:39:51.498Z,9.78
2023-02-17T06:42:17.923Z,9.79
2023-02-17T06:44:44.387Z,9.64
2023-02-17T06:47:10.789Z,9.64
2023-02-17T06:49:38.701Z,9.60
2023-02-17T06:52:06.408Z,9.68
2023-02-17T06:54:35.209Z,9.58
2023-02-17T06:57:01.648Z,9.63
2023-02-17T06:59:28.200Z,9.55
2023-02-17T07:01:54.749Z,9.49
2023-02-17T07:04:21.172Z,9.49
2023-02-17T07:06:47.614Z,9.50
2023-02-17T07:09:14.304Z,9.53
2023-02-17T07:11:41.835Z,9.46
2023-02-17T07:14:08.258Z,9.45
2023-02-17T07:16:34.833Z,9.41
2023-02-17T07:19:01.414Z,9.38
2023-02-17T07:21:27.845Z,9.43
2023-02-17T07:23:54.255Z,9.45
2023-02-17T07:26:20.693Z,9.44
2023-02-17T07:28:47.240Z,9.33
2023-02-17T07:31:16.201Z,9.28
2023-02-17T07:33:43.990Z,9.48
2023-02-17T07:36:14.502Z,9.47
2023-02-17T07:38:41.575Z,9.50
2023-02-17T07:41:20.164Z,9.51
2023-02-17T07:43:48.397Z,9.47
2023-02-17T07:46:15.307Z,9.59
2023-02-17T07:48:41.819Z,9.60
2023-02-17T07:51:11.279Z,9.55
2023-02-17T07:53:38.332Z,9.61
2023-02-17T07:56:06.342Z,9.55
2023-02-17T07:58:33.798Z,9.65
2023-02-17T08:01:15.708Z,9.65
2023-02-17T08:03:42.965Z,9.69
2023-02-17T08:06:11.548Z,9.74
2023-02-17T08:08:56.585Z,9.74
2023-02-17T08:11:42.475Z,9.70
2023-02-17T08:14:12.853Z,9.72
2023-02-17T08:16:39.608Z,9.80
2023-02-17T08:19:07.553Z,9.84
2023-02-17T08:21:34.682Z,9.83
2023-02-17T08:24:01.093Z,9.81
2023-02-17T08:26:27.587Z,9.87
2023-02-17T08:28:54.014Z,9.86
2023-02-17T08:31:29.247Z,9.86
2023-02-17T08:33:56.467Z,9.99
2023-02-17T08:36:24.684Z,10.00
2023-02-17T08:38:53.921Z,9.95
2023-02-17T08:41:32.665Z,10.00
2023-02-17T08:44:01.179Z,10.08
2023-02-17T08:46:28.882Z,10.04
2023-02-17T08:48:56.486Z,10.03
2023-02-17T08:51:25.992Z,10.00
2023-02-17T08:53:54.556Z,9.96
2023-02-17T08:56:22.492Z,10.03
2023-02-17T08:58:50.135Z,10.02
2023-02-17T09:01:18.888Z,10.09
2023-02-17T09:03:46.839Z,10.10
2023-02-17T09:06:13.561Z,10.18
2023-02-17T09:08:40.982Z,10.27
2023-02-17T09:11:09.675Z,10.23
2023-02-17T09:13:36.935Z,10.28
2023-02-17T09:16:03.944Z,10.22
2023-02-17T09:18:30.469Z,10.28
2023-02-17T09:20:58.396Z,10.34
2023-02-17T09:23:24.856Z,10.35
2023-02-17T09:26:01.222Z,10.44
2023-02-17T09:28:27.653Z,10.47
2023-02-17T09:30:54.158Z,10.50
2023-02-17T09:33:20.921Z,10.51
2023-02-17T09:35:49.187Z,10.55
2023-02-17T09:38:16.621Z,10.52
2023-02-17T09:40:49.038Z,10.54
2023-02-17T09:43:18.867Z,10.48
2023-02-17T09:45:52.642Z,10.52
2023-02-17T09:48:25.363Z,10.48
2023-02-17T09:51:25.500Z,10.54
2023-02-17T09:53:53.730Z,10.60
2023-02-17T09:56:25.490Z,10.66
2023-02-17T09:58:55.499Z,10.70
2023-02-17T10:01:28.733Z,10.72
2023-02-17T10:04:28.048Z,10.78
2023-02-17T10:07:09.826Z,10.92
2023-02-17T10:09:45.462Z,11.00
2023-02-17T10:12:24.041Z,11.03
2023-02-17T10:15:01.130Z,11.15
2023-02-17T10:17:51.818Z,11.26
2023-02-17T10:20:18.135Z,11.30
2023-02-17T10:22:50.659Z,11.30
2023-02-17T10:25:20.617Z,11.39
2023-02-17T10:28:04.701Z,11.45
2023-02-17T10:31:01.894Z,11.62
2023-02-17T10:33:37.803Z,11.69
2023-02-17T10:36:04.190Z,11.70
2023-02-17T10:38:47.173Z,11.62
2023-02-17T10:41:17.970Z,11.61
2023-02-17T10:43:45.215Z,11.63
2023-02-17T10:46:15.566Z,11.62
2023-02-17T10:48:50.427Z,11.66
2023-02-17T10:51:22.389Z,11.70
2023-02-17T10:53:54.378Z,11.85
2023-02-17T10:56:26.118Z,11.95
2023-02-17T10:58:57.951Z,11.95
2023-02-17T11:01:25.053Z,11.92
2023-02-17T11:04:06.693Z,12.01
2023-02-17T11:06:41.087Z,12.01
2023-02-17T11:09:19.809Z,12.02
2023-02-17T11:12:14.351Z,12.07
2023-02-17T11:14:47.103Z,12.00
2023-02-17T11:17:21.045Z,12.01
2023-02-17T11:23:24.612Z,12.05
2023-02-17T11:26:09.450Z,12.14
2023-02-17T11:28:35.923Z,12.19
2023-02-17T11:31:04.744Z,12.20
2023-02-17T11:33:37.333Z,12.18
2023-02-17T11:36:06.422Z,12.17
2023-02-17T11:38:42.775Z,12.16
2023-02-17T11:41:10.995Z,12.12
2023-02-17T11:43:39.032Z,12.07
2023-02-17T11:46:24.117Z,12.01
2023-02-17T11:49:06.081Z,11.98
2023-02-17T11:52:14.075Z,11.92
2023-02-17T11:55:02.316Z,11.91
2023-02-17T11:57:45.725Z,11.85
2023-02-17T12:00:22.554Z,11.85
2023-02-17T12:05:50.920Z,11.93
2023-02-17T12:08:30.655Z,11.97
2023-02-17T12:11:38.877Z,11.94
2023-02-17T12:14:31.379Z,11.90
2023-02-17T12:16:57.939Z,11.86
2023-02-17T12:19:30.006Z,11.84
2023-02-17T12:22:19.591Z,11.82
2023-02-17T12:28:00.349Z,11.81
2023-02-17T12:30:47.104Z,11.80
2023-02-17T12:36:29.504Z,11.81
2023-02-17T12:39:20.797Z,11.78
2023-02-17T12:44:28.459Z,11.78
2023-02-17T12:47:03.862Z,11.87
2023-02-17T12:49:43.467Z,11.88
2023-02-17T12:52:19.458Z,11.80
2023-02-17T13:00:09.888Z,11.70
2023-02-17T13:02:36.382Z,11.72
2023-02-17T13:05:12.981Z,11.70
2023-02-17T13:07:45.528Z,11.71
2023-02-17T13:10:21.489Z,11.50
2023-02-17T13:13:03.809Z,11.10
2023-02-17T13:15:42.981Z,10.94
2023-02-17T13:18:34.978Z,10.67
2023-02-17T13:21:16.700Z,10.67
2023-02-17T13:23:45.771Z,10.62
2023-02-17T13:26:22.437Z,10.54
2023-02-17T13:31:26.047Z,10.42
2023-02-17T13:33:58.555Z,10.38
2023-02-17T13:36:28.718Z,10.41
2023-02-17T13:53:37.726Z,10.07
2023-02-17T13:58:42.573Z,10.25
2023-02-17T14:06:40.872Z,10.24
2023-02-17T14:11:55.458Z,10.23
2023-02-17T14:14:26.090Z,10.05
2023-02-17T14:17:06.948Z,10.33
2023-02-17T14:19:47.017Z,10.41
2023-02-17T14:22:30.259Z,10.38
2023-02-17T14:25:00.893Z,10.45
2023-02-17T14:27:27.379Z,10.44
2023-02-17T14:29:53.822Z,10.48
2023-02-17T14:32:35.062Z,10.21
2023-02-17T14:49:10.159Z,10.47
2023-02-17T14:51:38.379Z,10.54
2023-02-17T14:54:15.504Z,10.49
2023-02-17T14:56:48.266Z,10.53
2023-02-17T15:02:55.659Z,10.53
2023-02-17T15:05:22.223Z,10.58
2023-02-17T15:07:49.492Z,10.54
2023-02-17T15:10:28.026Z,10.56
2023-02-17T15:12:55.469Z,10.50
2023-02-17T15:15:22.624Z,10.47
2023-02-17T15:17:49.661Z,10.48
2023-02-17T15:20:17.003Z,10.40
2023-02-17T15:22:44.306Z,10.44
2023-02-17T15:25:15.574Z,10.59
2023-02-17T15:27:42.655Z,10.64
2023-02-17T15:30:15.897Z,10.65
2023-02-17T15:32:50.003Z,10.60
2023-02-17T15:35:22.787Z,10.64
2023-02-17T15:37:50.260Z,10.63
2023-02-17T15:40:23.323Z,10.64
2023-02-17T15:42:57.414Z,10.63
2023-02-17T15:45:24.881Z,10.68
2023-02-17T15:47:56.271Z,10.70
2023-02-17T15:50:28.924Z,10.74
2023-02-17T15:52:55.313Z,10.71
2023-02-17T15:55:25.709Z,10.70
2023-02-17T15:57:59.072Z,10.78
2023-02-17T16:00:28.728Z,10.79
2023-02-17T16:02:55.698Z,10.83
2023-02-17T16:05:24.856Z,10.76
2023-02-17T16:07:51.613Z,10.87
2023-02-17T16:10:21.455Z,10.84
2023-02-17T16:12:52.205Z,10.86
2023-02-17T16:15:21.525Z,10.85
2023-02-17T16:17:49.228Z,10.88
2023-02-17T16:20:24.939Z,10.82
2023-02-17T16:22:51.910Z,10.93
2023-02-17T16:25:19.885Z,10.92
2023-02-17T16:27:48.103Z,10.91
2023-02-17T16:30:29.424Z,10.93
2023-02-17T16:32:56.681Z,10.89
2023-02-17T16:35:31.731Z,11.04
2023-02-17T16:38:02.667Z,11.05
2023-02-17T16:40:31.729Z,11.04
2023-02-17T16:42:58.317Z,11.00
2023-02-17T16:45:27.757Z,10.93
2023-02-17T16:47:57.201Z,10.91
2023-02-17T16:50:35.180Z,10.94
2023-02-17T16:53:04.780Z,10.91
2023-02-17T16:55:34.106Z,10.91
2023-02-17T16:58:01.106Z,10.96
2023-02-17T17:00:30.102Z,10.98
2023-02-17T17:02:57.628Z,10.99
2023-02-17T17:05:26.362Z,10.97
2023-02-17T17:07:52.883Z,10.96
2023-02-17T17:10:25.523Z,11.02
2023-02-17T17:12:55.337Z,10.98
2023-02-17T17:15:22.020Z,10.90
2023-02-17T17:17:52.749Z,10.94
2023-02-17T17:20:23.856Z,10.91
2023-02-17T17:22:51.375Z,10.95
2023-02-17T17:25:23.907Z,10.62
2023-02-17T17:31:11.055Z,10.89
2023-02-17T17:33:37.549Z,10.66
2023-02-17T17:36:15.200Z,10.45
2023-02-17T17:38:41.807Z,10.33
2023-02-17T17:41:13.357Z,10.17
2023-02-17T17:50:04.239Z,9.50
2023-02-17T18:22:05.282Z,9.59
2023-02-17T18:29:56.401Z,9.15
2023-02-17T18:32:24.309Z,9.29
2023-02-17T18:34:50.776Z,9.26
2023-02-17T18:37:17.208Z,9.44
2023-02-17T18:39:43.623Z,9.45
2023-02-17T18:42:11.004Z,9.22
2023-02-17T18:44:37.430Z,9.22
2023-02-17T18:47:03.955Z,9.25
2023-02-17T18:49:30.388Z,9.19
2023-02-17T18:51:56.913Z,9.02
2023-02-17T18:54:23.347Z,9.09
2023-02-17T18:56:49.876Z,9.03
2023-02-17T18:59:16.293Z,8.90
2023-02-17T19:01:43.243Z,8.59
2023-02-17T19:04:10.167Z,8.78
2023-02-17T19:06:36.626Z,8.85
2023-02-17T19:09:04.725Z,8.57
2023-02-17T19:11:32.180Z,8.66
2023-02-17T19:14:00.976Z,8.64
2023-02-17T19:16:29.421Z,8.59
2023-02-17T19:18:57.045Z,8.49
2023-02-17T19:21:24.156Z,8.65
2023-02-17T19:23:51.503Z,8.68
2023-02-17T19:26:38.929Z,8.63
2023-02-17T19:29:05.413Z,8.42
2023-02-17T19:31:31.918Z,8.56
2023-02-17T19:33:58.463Z,8.46
2023-02-17T19:36:24.845Z,8.48
2023-02-17T19:38:51.506Z,8.58
2023-02-17T19:41:19.294Z,8.60
2023-02-17T19:43:46.188Z,8.50
2023-02-17T19:46:14.400Z,8.59
2023-02-17T19:48:41.457Z,8.57
2023-02-17T19:51:09.255Z,8.61
2023-02-17T19:53:35.957Z,8.49
2023-02-17T19:56:12.609Z,8.58
2023-02-17T19:58:40.699Z,8.62
2023-02-17T20:01:13.460Z,8.56
2023-02-17T20:03:40.421Z,8.38
2023-02-17T20:06:10.036Z,8.51
2023-02-17T20:08:37.351Z,8.48
2023-02-17T20:11:07.857Z,8.33
2023-02-17T20:13:45.111Z,8.43
2023-02-17T20:16:14.223Z,8.61
2023-02-17T20:18:43.049Z,8.46
2023-02-17T20:21:11.226Z,8.38
2023-02-17T20:23:37.734Z,8.26
2023-02-17T20:26:10.150Z,8.20
2023-02-17T20:28:37.025Z,8.19
2023-02-17T20:31:04.392Z,8.36
2023-02-17T20:33:34.062Z,8.32
2023-02-17T20:36:00.828Z,8.35
2023-02-17T20:38:27.364Z,8.34
2023-02-17T20:40:53.955Z,8.27
2023-02-17T20:43:21.252Z,8.35
2023-02-17T20:45:49.175Z,8.29
2023-02-17T20:48:16.514Z,8.37
2023-02-17T20:50:44.337Z,8.40
2023-02-17T20:53:11.255Z,8.25
2023-02-17T20:55:37.962Z,8.34
2023-02-17T20:58:04.464Z,8.40
2023-02-17T21:00:31.438Z,8.37
2023-02-17T21:02:57.943Z,8.42
2023-02-17T21:05:26.188Z,8.50
2023-02-17T21:07:52.583Z,8.44
2023-02-17T21:10:22.774Z,8.25
2023-02-17T21:12:49.393Z,8.21
2023-02-17T21:15:16.123Z,8.13
2023-02-17T21:17:42.577Z,8.21
2023-02-17T21:20:11.928Z,8.10
2023-02-17T21:22:38.508Z,8.14
2023-02-17T21:25:05.669Z,8.02
2023-02-17T21:27:32.278Z,7.89
2023-02-17T21:29:58.866Z,7.97
2023-02-17T21:32:26.116Z,7.86
2023-02-17T21:34:52.654Z,7.86
2023-02-17T21:37:19.119Z,7.84
2023-02-17T21:39:45.556Z,7.89
2023-02-17T21:42:11.980Z,7.80
2023-02-17T21:44:53.609Z,7.68
2023-02-17T21:47:21.235Z,7.73
2023-02-17T21:49:47.928Z,7.76
2023-02-17T21:52:15.241Z,7.89
2023-02-17T21:54:41.690Z,8.01
2023-02-17T21:57:08.161Z,7.95
2023-02-17T21:59:35.036Z,8.01
2023-02-17T22:02:01.535Z,8.10
2023-02-17T22:04:28.320Z,8.14
2023-02-17T22:06:54.755Z,8.14
2023-02-17T22:09:21.414Z,8.18
2023-02-17T22:11:48.694Z,8.23
2023-02-17T22:14:18.241Z,8.16
2023-02-17T22:16:45.445Z,8.21
2023-02-17T22:19:23.263Z,8.21
2023-02-17T22:21:51.133Z,8.26
2023-02-17T22:24:20.618Z,8.21
2023-02-17T22:26:47.958Z,8.28
2023-02-17T22:29:14.450Z,8.32
2023-02-17T22:31:41.198Z,8.37
2023-02-17T22:34:09.774Z,8.40
2023-02-17T22:36:37.062Z,8.36
2023-02-17T22:39:05.378Z,8.25
2023-02-17T22:41:32.840Z,8.36
2023-02-17T22:44:00.956Z,8.22
2023-02-17T22:46:27.701Z,8.29
2023-02-17T22:48:57.428Z,8.35
2023-02-17T22:51:27.994Z,8.03
2023-02-17T22:53:54.871Z,7.55
2023-02-17T22:56:21.854Z,8.19
2023-02-17T22:58:50.451Z,8.13
2023-02-17T23:01:20.614Z,8.15
2023-02-17T23:03:52.306Z,8.04
2023-02-17T23:06:32.151Z,8.04
2023-02-17T23:08:59.944Z,7.87
2023-02-17T23:11:51.236Z,7.79
2023-02-17T23:14:31.942Z,7.76
2023-02-17T23:17:01.826Z,7.63
2023-02-17T23:19:29.006Z,7.62
2023-02-17T23:21:58.675Z,7.64
2023-02-17T23:24:26.255Z,7.53
2023-02-17T23:26:54.684Z,7.58
2023-02-17T23:29:21.689Z,7.52
2023-02-17T23:31:48.712Z,7.61
2023-02-17T23:34:16.836Z,7.58
2023-02-17T23:36:44.908Z,7.48
2023-02-17T23:39:11.475Z,7.76
2023-02-17T23:41:39.375Z,7.75
2023-02-17T23:44:08.489Z,7.74
2023-02-17T23:46:35.925Z,7.60
2023-02-17T23:49:02.429Z,7.77
2023-02-17T23:51:28.914Z,7.75
2023-02-17T23:53:55.421Z,7.61
2023-02-17T23:56:33.716Z,7.72
2023-02-17T23:59:00.897Z,7.79
